ADDS METAR Data INFO
IDs: Format: Raw Decoded Include TAF

Data at: 1351 UTC 23 Jun 2018

KVNY 231251Z VRB03KT 4SM BR OVC006 17/15 A2981 RMK AO2 SLP084 T01670150
KVNY 231151Z AUTO 09004KT 5SM BR OVC007 17/15 A2980 RMK AO2 SLP081 T01720150 10200 20167 56004
KVNY 231051Z AUTO 00000KT 4SM BR OVC006 17/15 A2980 RMK AO2 SLP083 T01670150
KVNY 230951Z AUTO 10003KT 5SM BR OVC006 17/15 A2980 RMK AO2 SLP082 T01670150
KVNY 230904Z AUTO 10005KT 8SM BKN009 17/15 A2981 RMK AO2 T01720150
KVNY 230851Z AUTO 11004KT 8SM FEW009 17/15 A2981 RMK AO2 SLP085 T01720150 56004
KVNY 230751Z AUTO 12004KT 10SM CLR 18/15 A2981 RMK AO2 SLP085 T01830150 403170172
KVNY 230651Z AUTO 10005KT 10SM CLR 19/15 A2981 RMK AO2 SLP088 T01940150
KVNY 230551Z AUTO 11004KT 10SM CLR 20/15 A2982 RMK AO2 SLP090 T02000150 10300 20200 51014
KVNY 230451Z 08005KT 10SM CLR 21/15 A2982 RMK AO2 SLP089 T02060150
KVNY 230351Z 10006KT 10SM CLR 22/15 A2980 RMK AO2 SLP083 T02170150
KVNY 230251Z 12006KT 10SM CLR 23/16 A2978 RMK AO2 SLP076 T02330156 53001
KVNY 230151Z 12007KT 10SM CLR 26/16 A2977 RMK AO2 SLP074 T02610161
KVNY 230051Z 12008KT 10SM CLR 29/16 A2977 RMK AO2 SLP071 T02890161
KVNY 222351Z 16009KT 10SM CLR 30/16 A2978 RMK AO2 SLP074 T03000161 10317 20239 56018
KVNY 222251Z 13009KT 10SM CLR 31/16 A2979 RMK AO2 SLP078 T03060161
KVNY 222151Z 14008KT 10SM CLR 31/16 A2981 RMK AO2 SLP086 T03110156
KVNY 222051Z 15006KT 10SM CLR 31/16 A2983 RMK AO2 SLP092 T03060156 58023
KVNY 221951Z 08007KT 8SM CLR 29/16 A2986 RMK AO2 SLP100 T02940161
KVNY 221851Z VRB04KT 5SM HZ CLR 26/16 A2988 RMK AO2 SLP110 T02610156
KVNY 221751Z 14005KT 5SM HZ CLR 24/16 A2990 RMK AO2 SLP117 T02390156 10239 20172 58003
KVNY 221651Z 11005KT 4SM HZ CLR 22/16 A2991 RMK AO2 SLP120 T02220156
KVNY 221641Z COR 00000KT 4SM HZ FEW014 21/16 A2991 RMK AO2 T02110156
KVNY 221551Z VRB03KT 3SM HZ OVC012 19/16 A2992 RMK AO2 SLP126 T01890156
KVNY 221451Z 09004KT 3SM HZ OVC011 19/16 A2991 RMK AO2 SLP120 T01890156 53006
KVNY 221433Z 00000KT 3SM HZ OVC010 18/16 A2990 RMK AO2 T01830156
KVNY 221351Z 11004KT 3SM BR OVC009 18/16 A2990 RMK AO2 SLP118 T01780156
KVNY 221251Z AUTO 16004KT 4SM BR OVC007 17/16 A2990 RMK AO2 SLP115 T01720156
KVNY 221151Z AUTO 15003KT 4SM BR OVC008 17/16 A2989 RMK AO2 SLP113 T01720156 10183 20172 57008
KVNY 221051Z AUTO 12004KT 5SM BR OVC006 17/16 A2990 RMK AO2 SLP116 T01720156
KVNY 220951Z AUTO VRB04KT 5SM BR OVC006 17/16 A2991 RMK AO2 SLP118 T01720156
KVNY 220851Z AUTO 00000KT 5SM BR OVC006 17/16 A2991 RMK AO2 SLP121 T01720156 58002
KVNY 220751Z AUTO 14004KT 6SM BR OVC006 17/16 A2992 RMK AO2 SLP123 T01720156 403110172
KVNY 220716Z AUTO 15005KT 7SM BKN008 17/15 A2992 RMK AO2 T01720150
KVNY 220704Z AUTO 15005KT 7SM SCT008 17/15 A2992 RMK AO2 T01720150
KVNY 220651Z AUTO 16004KT 8SM CLR 17/15 A2992 RMK AO2 SLP123 T01720150
KVNY 220551Z AUTO 13004KT 9SM CLR 18/15 A2992 RMK AO2 SLP124 T01830150 10294 20183 51013
KVNY 220451Z 10005KT 10SM CLR 19/15 A2992 RMK AO2 SLP124 T01890150
KVNY 220351Z 11008KT 10SM CLR 20/15 A2990 RMK AO2 SLP117 T02000150
KVNY 220251Z 11007KT 10SM CLR 23/15 A2988 RMK AO2 SLP111 T02280150 53006